createdAt,value
2018-05-15T00:01:13.613Z,11.60
2018-05-15T00:03:41.250Z,11.23
2018-05-15T00:06:08.894Z,11.50
2018-05-15T00:08:37.277Z,9.03
2018-05-15T00:11:04.913Z,8.30
2018-05-15T00:13:33.317Z,8.60
2018-05-15T00:16:00.970Z,10.33
2018-05-15T00:18:29.370Z,9.37
2018-05-15T00:20:57.022Z,8.87
2018-05-15T00:23:24.660Z,10.40
2018-05-15T00:25:53.069Z,10.73
2018-05-15T00:28:20.702Z,14.70
2018-05-15T00:30:48.339Z,9.83
2018-05-15T00:33:15.973Z,9.17
2018-05-15T00:35:43.608Z,9.97
2018-05-15T00:38:11.234Z,11.37
2018-05-15T00:40:39.633Z,9.47
2018-05-15T00:43:07.266Z,9.30
2018-05-15T00:45:34.906Z,10.17
2018-05-15T00:48:02.565Z,9.53
2018-05-15T00:50:30.201Z,12.57
2018-05-15T00:52:57.822Z,8.50
2018-05-15T00:55:45.265Z,9.13
2018-05-15T00:58:12.904Z,9.23
2018-05-15T01:00:41.682Z,8.87
2018-05-15T01:03:10.119Z,8.47
2018-05-15T01:05:37.746Z,11.50
2018-05-15T01:08:05.378Z,10.53
2018-05-15T01:10:33.786Z,8.87
2018-05-15T01:13:01.400Z,8.80
2018-05-15T01:15:29.020Z,9.20
2018-05-15T01:17:56.636Z,9.30
2018-05-15T01:20:24.288Z,12.73
2018-05-15T01:22:51.910Z,9.50
2018-05-15T01:25:19.528Z,9.13
2018-05-15T01:27:47.955Z,9.63
2018-05-15T01:30:15.560Z,9.37
2018-05-15T01:32:43.957Z,11.23
2018-05-15T01:35:11.580Z,8.97
2018-05-15T01:37:39.195Z,9.37
2018-05-15T01:40:06.820Z,10.80
2018-05-15T01:42:35.266Z,9.70
2018-05-15T01:45:02.856Z,9.53
2018-05-15T01:47:31.243Z,10.03
2018-05-15T01:49:59.641Z,10.37
2018-05-15T01:52:27.268Z,11.93
2018-05-15T01:54:54.884Z,9.43
2018-05-15T01:57:22.500Z,11.27
2018-05-15T01:59:50.891Z,14.10
2018-05-15T02:02:18.584Z,11.50
2018-05-15T02:04:46.205Z,13.50
2018-05-15T02:07:14.600Z,11.53
2018-05-15T02:09:42.219Z,13.13
2018-05-15T02:12:09.837Z,13.23
2018-05-15T02:14:37.456Z,13.53
2018-05-15T02:17:05.851Z,13.20
2018-05-15T02:19:33.480Z,12.70
2018-05-15T02:22:01.876Z,12.00
2018-05-15T02:24:30.264Z,12.30
2018-05-15T02:26:57.905Z,12.03
2018-05-15T02:29:26.302Z,11.97
2018-05-15T02:31:53.924Z,12.33
2018-05-15T02:34:21.557Z,11.80
2018-05-15T02:36:49.949Z,14.67
2018-05-15T02:39:17.576Z,14.53
2018-05-15T02:41:45.208Z,13.30
2018-05-15T02:44:12.833Z,13.30
2018-05-15T02:46:40.468Z,15.53
2018-05-15T02:49:08.089Z,11.97
2018-05-15T02:51:36.487Z,12.37
2018-05-15T02:54:04.103Z,11.87
2018-05-15T02:56:31.756Z,12.27
2018-05-15T02:58:59.381Z,13.20
2018-05-15T03:01:27.007Z,13.03
2018-05-15T03:03:55.403Z,13.77
2018-05-15T03:06:23.020Z,13.57
2018-05-15T03:08:50.648Z,15.63
2018-05-15T03:11:18.274Z,12.93
2018-05-15T03:13:45.900Z,15.23
2018-05-15T03:16:13.516Z,14.17
2018-05-15T03:18:41.144Z,25.50
2018-05-15T03:21:09.535Z,15.73
2018-05-15T03:23:37.164Z,19.30
2018-05-15T03:26:04.796Z,25.87
2018-05-15T03:28:32.412Z,20.37
2018-05-15T03:31:00.037Z,22.83
2018-05-15T03:33:27.672Z,22.50
2018-05-15T03:35:55.293Z,18.50
2018-05-15T03:38:22.924Z,21.57
2018-05-15T03:40:50.552Z,16.37
2018-05-15T03:43:18.163Z,14.43
2018-05-15T03:45:46.567Z,19.67
2018-05-15T03:48:14.187Z,14.57
2018-05-15T03:50:42.583Z,13.00
2018-05-15T03:53:10.967Z,13.17
2018-05-15T03:55:38.584Z,13.70
2018-05-15T03:58:06.207Z,14.97
2018-05-15T04:00:45.684Z,12.93
2018-05-15T04:03:25.223Z,12.20
2018-05-15T04:06:04.631Z,15.67
2018-05-15T04:08:32.258Z,14.27
2018-05-15T04:10:59.975Z,15.13
2018-05-15T04:13:27.614Z,17.40
2018-05-15T04:15:55.254Z,17.83
2018-05-15T04:18:23.762Z,18.70
2018-05-15T04:20:51.388Z,20.30
2018-05-15T04:23:19.016Z,23.23
2018-05-15T04:25:46.679Z,17.83
2018-05-15T04:28:15.130Z,16.53
2018-05-15T04:30:43.511Z,26.00
2018-05-15T04:33:11.141Z,30.90
2018-05-15T04:35:38.756Z,31.47
2018-05-15T04:38:07.156Z,21.47
2018-05-15T04:40:34.779Z,22.93
2018-05-15T04:43:02.392Z,22.83
2018-05-15T04:45:30.020Z,21.43
2018-05-15T04:47:58.404Z,26.60
2018-05-15T04:50:26.784Z,26.57
2018-05-15T04:52:54.423Z,17.97
2018-05-15T04:55:22.094Z,18.30
2018-05-15T04:57:50.474Z,12.93
2018-05-15T05:00:18.867Z,19.13
2018-05-15T05:02:47.248Z,19.40
2018-05-15T05:05:14.900Z,17.03
2018-05-15T05:07:43.319Z,14.73
2018-05-15T05:10:10.930Z,13.17
2018-05-15T05:12:39.332Z,10.73
2018-05-15T05:15:06.963Z,14.43
2018-05-15T05:17:35.352Z,13.30
2018-05-15T05:20:03.789Z,13.00
2018-05-15T05:22:31.922Z,16.03
2018-05-15T05:24:59.556Z,13.80
2018-05-15T05:27:27.939Z,11.40
2018-05-15T05:29:56.352Z,18.93
2018-05-15T05:32:23.977Z,14.93
2018-05-15T05:34:52.360Z,13.23
2018-05-15T05:37:20.762Z,11.93
2018-05-15T05:39:48.393Z,16.30
2018-05-15T05:42:16.799Z,21.23
2018-05-15T05:44:44.439Z,17.90
2018-05-15T05:47:12.842Z,10.80
2018-05-15T05:49:40.468Z,14.87
2018-05-15T05:52:08.931Z,9.57
2018-05-15T05:54:36.537Z,19.67
2018-05-15T05:57:04.168Z,12.90
2018-05-15T05:59:32.560Z,8.87
2018-05-15T06:02:00.190Z,10.70
2018-05-15T06:04:27.812Z,17.07
2018-05-15T06:06:55.473Z,13.30
2018-05-15T06:09:23.082Z,12.07
2018-05-15T06:11:51.476Z,11.53
2018-05-15T06:14:19.126Z,17.13
2018-05-15T06:16:46.755Z,10.43
2018-05-15T06:19:14.380Z,8.80
2018-05-15T06:21:42.004Z,8.57
2018-05-15T06:24:10.379Z,6.40
2018-05-15T06:26:38.784Z,11.77
2018-05-15T06:29:06.392Z,11.70
2018-05-15T06:31:34.022Z,10.30
2018-05-15T06:34:01.647Z,7.17
2018-05-15T06:36:29.286Z,7.70
2018-05-15T06:38:56.925Z,12.37
2018-05-15T06:41:24.532Z,7.93
2018-05-15T06:43:52.155Z,10.80
2018-05-15T06:46:19.788Z,8.80
2018-05-15T06:48:47.414Z,13.57
2018-05-15T06:51:15.057Z,10.80
2018-05-15T06:53:43.433Z,9.53
2018-05-15T06:56:11.821Z,11.57
2018-05-15T06:58:40.202Z,11.03
2018-05-15T07:01:08.621Z,13.17
2018-05-15T07:03:36.231Z,9.17
2018-05-15T07:06:04.641Z,7.70
2018-05-15T07:08:32.260Z,14.00
2018-05-15T07:10:59.904Z,13.88
2018-05-15T07:13:27.578Z,9.68
2018-05-15T07:15:55.203Z,9.82
2018-05-15T07:18:22.835Z,11.10
2018-05-15T07:20:50.461Z,8.43
2018-05-15T07:23:18.088Z,8.00
2018-05-15T07:25:45.716Z,9.23
2018-05-15T07:28:13.332Z,16.25
2018-05-15T07:30:40.971Z,10.95
2018-05-15T07:33:08.671Z,11.07
2018-05-15T07:35:36.289Z,7.35
2018-05-15T07:38:03.916Z,8.93
2018-05-15T07:40:31.548Z,14.15
2018-05-15T07:42:59.936Z,8.20
2018-05-15T07:45:29.378Z,5.40
2018-05-15T07:47:57.032Z,7.90
2018-05-15T07:50:24.661Z,13.10
2018-05-15T07:52:53.056Z,12.25
2018-05-15T07:55:20.676Z,12.70
2018-05-15T07:57:48.317Z,10.95
2018-05-15T08:00:15.948Z,7.43
2018-05-15T08:02:43.575Z,6.22
2018-05-15T08:05:11.998Z,6.22
2018-05-15T08:07:39.631Z,9.57
2018-05-15T08:10:07.256Z,5.40
2018-05-15T08:12:34.883Z,11.93
2018-05-15T08:15:02.504Z,7.28
2018-05-15T08:17:30.124Z,5.35
2018-05-15T08:19:57.784Z,5.00
2018-05-15T08:22:25.403Z,8.02
2018-05-15T08:24:53.073Z,9.05
2018-05-15T08:27:20.688Z,7.93
2018-05-15T08:29:49.086Z,8.00
2018-05-15T08:32:16.704Z,4.25
2018-05-15T08:34:44.333Z,6.22
2018-05-15T08:37:11.987Z,5.95
2018-05-15T08:39:39.604Z,5.65
2018-05-15T08:42:08.012Z,5.05
2018-05-15T08:44:35.633Z,8.20
2018-05-15T08:47:03.296Z,3.53
2018-05-15T08:49:31.688Z,6.85
2018-05-15T08:52:00.131Z,11.20
2018-05-15T08:54:27.767Z,9.38
2018-05-15T08:56:55.386Z,9.23
2018-05-15T08:59:23.776Z,9.35
2018-05-15T09:01:51.392Z,3.97
2018-05-15T09:04:19.020Z,15.05
2018-05-15T09:06:46.673Z,6.43
2018-05-15T09:09:14.299Z,4.87
2018-05-15T09:11:42.697Z,19.42
2018-05-15T09:14:10.316Z,10.63
2018-05-15T09:16:37.945Z,10.60
2018-05-15T09:19:05.572Z,4.87
2018-05-15T09:21:33.964Z,9.70
2018-05-15T09:24:01.600Z,19.50
2018-05-15T09:26:29.993Z,5.82
2018-05-15T09:28:57.626Z,10.48
2018-05-15T09:31:25.276Z,6.00
2018-05-15T09:33:53.024Z,3.12
2018-05-15T09:36:20.727Z,9.70
2018-05-15T09:38:48.311Z,10.52
2018-05-15T09:41:15.927Z,7.70
2018-05-15T09:43:58.451Z,7.32
2018-05-15T09:46:26.856Z,8.35
2018-05-15T09:48:54.535Z,34.88
2018-05-15T09:51:22.167Z,4.28
2018-05-15T09:53:49.803Z,4.70
2018-05-15T09:56:18.242Z,6.53
2018-05-15T09:58:45.852Z,4.12
2018-05-15T10:01:14.244Z,6.53
2018-05-15T10:03:41.883Z,8.65
2018-05-15T10:06:10.273Z,5.63
2018-05-15T10:08:38.676Z,6.10
2018-05-15T10:11:06.328Z,9.35
2018-05-15T10:13:33.984Z,8.10
2018-05-15T10:16:01.620Z,6.57
2018-05-15T10:18:30.961Z,5.93
2018-05-15T10:20:58.589Z,7.28
2018-05-15T10:23:26.251Z,6.00
2018-05-15T10:25:54.664Z,6.50
2018-05-15T10:28:22.308Z,5.40
2018-05-15T10:30:49.942Z,3.20
2018-05-15T10:33:18.365Z,5.65
2018-05-15T10:35:45.995Z,5.40
2018-05-15T10:38:14.384Z,7.85
2018-05-15T10:40:42.012Z,5.35
2018-05-15T10:43:10.411Z,6.18
2018-05-15T10:45:38.036Z,13.93
2018-05-15T10:48:05.676Z,3.00
2018-05-15T10:50:33.308Z,11.75
2018-05-15T10:53:00.932Z,4.07
2018-05-15T10:55:29.324Z,8.10
2018-05-15T10:57:56.985Z,3.95
2018-05-15T11:00:24.604Z,4.40
2018-05-15T11:02:52.262Z,7.87
2018-05-15T11:05:20.704Z,11.65
2018-05-15T11:07:48.328Z,3.53
2018-05-15T11:10:15.956Z,6.37
2018-05-15T11:12:43.589Z,4.57
2018-05-15T11:15:11.260Z,3.00
2018-05-15T11:17:38.937Z,8.63
2018-05-15T11:20:18.408Z,4.20
2018-05-15T11:22:57.768Z,7.65
2018-05-15T11:25:25.398Z,3.60
2018-05-15T11:27:53.052Z,5.95
2018-05-15T11:30:20.705Z,9.40
2018-05-15T11:32:48.331Z,8.07
2018-05-15T11:35:15.955Z,4.37
2018-05-15T11:37:44.353Z,6.68
2018-05-15T11:40:11.967Z,2.95
2018-05-15T11:42:39.640Z,3.20
2018-05-15T11:45:07.266Z,8.55
2018-05-15T11:47:35.108Z,4.25
2018-05-15T11:50:03.508Z,5.30
2018-05-15T11:52:31.033Z,3.80
2018-05-15T11:54:57.892Z,7.10
2018-05-15T11:57:25.511Z,6.28
2018-05-15T11:59:53.912Z,4.12
2018-05-15T12:02:21.563Z,11.43
2018-05-15T12:04:49.231Z,5.15
2018-05-15T12:07:16.868Z,4.18
2018-05-15T12:09:44.485Z,5.68
2018-05-15T12:12:12.124Z,7.30
2018-05-15T12:14:39.754Z,4.10
2018-05-15T12:17:08.156Z,5.53
2018-05-15T12:19:35.813Z,5.37
2018-05-15T12:22:03.438Z,4.75
2018-05-15T12:24:31.113Z,9.60
2018-05-15T12:26:58.828Z,6.40
2018-05-15T12:29:26.483Z,3.65
2018-05-15T12:31:54.101Z,6.35
2018-05-15T12:34:22.488Z,7.47
2018-05-15T12:36:50.872Z,10.95
2018-05-15T12:39:18.567Z,5.97
2018-05-15T12:41:46.321Z,7.95
2018-05-15T12:44:13.849Z,5.95
2018-05-15T12:46:41.837Z,9.90
2018-05-15T12:49:09.396Z,3.45
2018-05-15T12:51:37.021Z,8.07
2018-05-15T12:54:05.446Z,7.12
2018-05-15T12:56:33.052Z,4.47
2018-05-15T12:59:00.670Z,6.05
2018-05-15T13:01:28.295Z,3.45
2018-05-15T13:03:55.921Z,5.05
2018-05-15T13:06:23.540Z,3.40
2018-05-15T13:08:51.186Z,8.57
2018-05-15T13:11:18.808Z,6.95
2018-05-15T13:13:46.435Z,9.88
2018-05-15T13:16:14.061Z,8.48
2018-05-15T13:18:41.719Z,6.22
2018-05-15T13:21:09.369Z,5.55
2018-05-15T13:23:37.766Z,4.68
2018-05-15T13:26:05.403Z,7.53
2018-05-15T13:28:33.785Z,4.12
2018-05-15T13:31:02.179Z,4.70
2018-05-15T13:33:29.793Z,3.92
2018-05-15T13:35:57.416Z,8.27
2018-05-15T13:38:25.043Z,5.78
2018-05-15T13:40:53.436Z,7.78
2018-05-15T13:43:21.064Z,7.65
2018-05-15T13:45:49.809Z,4.65
2018-05-15T13:48:17.454Z,4.50
2018-05-15T13:50:45.073Z,12.75
2018-05-15T13:53:13.485Z,8.40
2018-05-15T13:55:41.108Z,5.40
2018-05-15T13:58:08.734Z,5.78
2018-05-15T14:00:36.356Z,6.45
2018-05-15T14:03:03.984Z,4.57
2018-05-15T14:05:31.607Z,5.00
2018-05-15T14:07:59.232Z,6.40
2018-05-15T14:10:26.852Z,8.05
2018-05-15T14:12:54.476Z,6.82
2018-05-15T14:15:22.097Z,6.55
2018-05-15T14:17:50.492Z,5.93
2018-05-15T14:20:18.116Z,3.28
2018-05-15T14:22:45.744Z,3.78
2018-05-15T14:25:13.370Z,4.72
2018-05-15T14:27:40.983Z,6.22
2018-05-15T14:30:08.620Z,5.62
2018-05-15T14:32:36.248Z,4.37
2018-05-15T14:35:03.876Z,3.87
2018-05-15T14:37:31.508Z,5.85
2018-05-15T14:39:59.468Z,9.23
2018-05-15T14:42:39.080Z,5.07
2018-05-15T14:45:06.734Z,10.40
2018-05-15T14:47:34.352Z,8.25
2018-05-15T14:50:01.996Z,9.07
2018-05-15T14:52:29.611Z,6.62
2018-05-15T14:54:57.996Z,8.23
2018-05-15T14:57:25.645Z,12.77
2018-05-15T14:59:54.048Z,7.28
2018-05-15T15:02:21.656Z,6.18
2018-05-15T15:04:49.307Z,6.27
2018-05-15T15:07:16.928Z,5.78
2018-05-15T15:09:44.545Z,3.85
2018-05-15T15:12:12.196Z,5.22
2018-05-15T15:14:40.139Z,5.25
2018-05-15T15:17:07.755Z,3.35
2018-05-15T15:19:36.166Z,3.37
2018-05-15T15:22:03.802Z,3.03
2018-05-15T15:24:31.432Z,7.12
2018-05-15T15:26:59.055Z,4.90
2018-05-15T15:29:26.672Z,13.20
2018-05-15T15:31:55.068Z,4.18
2018-05-15T15:34:22.690Z,4.72
2018-05-15T15:36:50.317Z,4.37
2018-05-15T15:39:17.952Z,3.25
2018-05-15T15:41:45.584Z,2.25
2018-05-15T15:44:13.976Z,4.82
2018-05-15T15:46:41.595Z,4.57
2018-05-15T15:49:09.215Z,41.28
2018-05-15T15:51:36.849Z,6.35
2018-05-15T15:54:05.235Z,7.62
2018-05-15T15:56:32.864Z,6.03
2018-05-15T15:59:00.504Z,4.55
2018-05-15T16:01:28.453Z,5.25
2018-05-15T16:03:56.324Z,3.37
2018-05-15T16:06:23.983Z,6.03
2018-05-15T16:08:51.612Z,3.15
2018-05-15T16:11:19.281Z,4.60
2018-05-15T16:13:46.908Z,7.95
2018-05-15T16:16:15.301Z,5.22
2018-05-15T16:18:43.685Z,7.78
2018-05-15T16:21:11.323Z,3.40
2018-05-15T16:23:38.941Z,6.97
2018-05-15T16:26:06.574Z,8.60
2018-05-15T16:28:34.254Z,5.12
2018-05-15T16:31:01.852Z,5.07
2018-05-15T16:33:29.482Z,5.87
2018-05-15T16:35:57.096Z,4.28
2018-05-15T16:38:25.489Z,7.57
2018-05-15T16:40:53.116Z,7.75
2018-05-15T16:43:20.778Z,4.72
2018-05-15T16:45:48.388Z,3.25
2018-05-15T16:48:16.016Z,5.68
2018-05-15T16:50:44.416Z,5.68
2018-05-15T16:53:12.029Z,4.20
2018-05-15T16:55:39.656Z,7.18
2018-05-15T16:58:07.272Z,3.47
2018-05-15T17:00:35.655Z,3.03
2018-05-15T17:03:04.390Z,3.20
2018-05-15T17:05:32.005Z,3.22
2018-05-15T17:07:59.716Z,6.53
2018-05-15T17:13:01.379Z,4.32
2018-05-15T17:15:29.015Z,5.05
2018-05-15T17:17:56.632Z,4.97
2018-05-15T17:20:24.267Z,5.62
2018-05-15T17:22:51.890Z,2.87
2018-05-15T17:25:19.517Z,3.92
2018-05-15T17:27:47.922Z,6.12
2018-05-15T17:30:15.541Z,3.12
2018-05-15T17:32:43.155Z,7.60
2018-05-15T17:35:10.784Z,3.35
2018-05-15T17:37:39.180Z,3.65
2018-05-15T17:40:06.872Z,5.40
2018-05-15T17:42:34.492Z,5.72
2018-05-15T17:45:02.886Z,5.28
2018-05-15T17:47:30.561Z,5.80
2018-05-15T17:49:58.925Z,3.70
2018-05-15T17:52:26.584Z,4.25
2018-05-15T17:54:54.216Z,4.40
2018-05-15T17:57:22.612Z,8.73
2018-05-15T17:59:50.309Z,7.40
2018-05-15T18:02:18.656Z,7.50
2018-05-15T18:04:46.280Z,4.80
2018-05-15T18:07:14.668Z,5.55
2018-05-15T18:09:43.063Z,7.97
2018-05-15T18:12:10.677Z,5.90
2018-05-15T18:14:38.331Z,3.27
2018-05-15T18:17:05.944Z,5.83
2018-05-15T18:19:33.565Z,5.40
2018-05-15T18:22:01.199Z,7.40
2018-05-15T18:24:28.808Z,4.40
2018-05-15T18:26:57.204Z,3.10
2018-05-15T18:29:24.821Z,3.27
2018-05-15T18:31:52.452Z,3.73
2018-05-15T18:34:20.077Z,7.70
2018-05-15T18:36:48.460Z,4.97
2018-05-15T18:39:16.097Z,5.80
2018-05-15T18:41:43.714Z,6.10
2018-05-15T18:44:11.337Z,4.17
2018-05-15T18:46:39.732Z,4.00
2018-05-15T18:49:07.348Z,4.10
2018-05-15T18:51:34.977Z,8.40
2018-05-15T18:54:02.596Z,4.27
2018-05-15T18:56:31.010Z,4.00
2018-05-15T18:58:58.692Z,3.80
2018-05-15T19:01:27.076Z,6.80
2018-05-15T19:03:54.696Z,5.53
2018-05-15T19:06:22.304Z,4.27
2018-05-15T19:08:49.933Z,5.83
2018-05-15T19:11:19.513Z,6.03
2018-05-15T19:13:47.198Z,5.93
2018-05-15T19:16:14.819Z,4.13
2018-05-15T19:18:43.200Z,5.10
2018-05-15T19:21:10.843Z,7.47
2018-05-15T19:23:39.229Z,4.20
2018-05-15T19:26:07.608Z,4.97
2018-05-15T19:28:35.468Z,4.63
2018-05-15T19:31:03.872Z,3.90
2018-05-15T19:33:37.154Z,5.90
2018-05-15T19:36:11.338Z,3.50
2018-05-15T19:38:38.963Z,3.77
2018-05-15T19:41:06.590Z,7.20
2018-05-15T19:43:34.213Z,3.37
2018-05-15T19:46:01.840Z,2.87
2018-05-15T19:48:29.476Z,4.07
2018-05-15T19:50:57.088Z,5.90
2018-05-15T19:53:24.719Z,2.90
2018-05-15T19:55:52.338Z,3.87
2018-05-15T19:58:21.061Z,4.47
2018-05-15T20:00:48.691Z,4.97
2018-05-15T20:03:16.302Z,3.40
2018-05-15T20:05:43.923Z,4.00
2018-05-15T20:08:11.551Z,4.47
2018-05-15T20:10:39.928Z,3.13
2018-05-15T20:13:08.317Z,6.20
2018-05-15T20:15:36.691Z,6.33
2018-05-15T20:18:05.096Z,5.77
2018-05-15T20:20:32.704Z,5.63
2018-05-15T20:23:00.337Z,3.67
2018-05-15T20:25:27.959Z,4.93
2018-05-15T20:27:56.336Z,3.33
2018-05-15T20:30:23.961Z,6.33
2018-05-15T20:32:51.573Z,3.23
2018-05-15T20:35:19.188Z,3.30
2018-05-15T20:37:46.800Z,4.13
2018-05-15T20:40:14.417Z,3.43
2018-05-15T20:42:42.808Z,11.23
2018-05-15T20:45:10.429Z,4.27
2018-05-15T20:47:38.056Z,3.93
2018-05-15T20:50:05.677Z,3.47
2018-05-15T20:52:34.101Z,6.30
2018-05-15T20:55:01.722Z,3.40
2018-05-15T20:57:29.358Z,3.87
2018-05-15T20:59:57.034Z,6.63
2018-05-15T21:02:25.422Z,3.63
2018-05-15T21:04:53.804Z,5.10
2018-05-15T21:07:22.195Z,3.40
2018-05-15T21:09:49.817Z,3.73
2018-05-15T21:12:17.432Z,4.57
2018-05-15T21:14:45.052Z,4.63
2018-05-15T21:17:13.433Z,3.50
2018-05-15T21:19:41.820Z,4.50
2018-05-15T21:22:10.204Z,3.33
2018-05-15T21:24:37.838Z,6.83
2018-05-15T21:27:06.220Z,3.30
2018-05-15T21:29:34.617Z,3.23
2018-05-15T21:32:03.005Z,7.13
2018-05-15T21:34:30.628Z,4.60
2018-05-15T21:36:58.249Z,2.60
2018-05-15T21:39:25.867Z,4.63
2018-05-15T21:41:54.236Z,3.13
2018-05-15T21:44:22.627Z,4.03
2018-05-15T21:46:51.008Z,3.30
2018-05-15T21:49:18.634Z,3.77
2018-05-15T21:51:46.272Z,3.97
2018-05-15T21:54:13.882Z,2.70
2018-05-15T21:56:42.279Z,5.07
2018-05-15T21:59:09.904Z,2.93
2018-05-15T22:01:38.292Z,3.80
2018-05-15T22:04:06.680Z,3.67
2018-05-15T22:06:35.068Z,5.10
2018-05-15T22:09:02.728Z,3.70
2018-05-15T22:11:29.862Z,4.60
2018-05-15T22:14:10.172Z,7.13
2018-05-15T22:16:49.598Z,3.50
2018-05-15T22:19:28.932Z,6.90
2018-05-15T22:22:08.396Z,3.47
2018-05-15T22:24:36.008Z,4.53
2018-05-15T22:27:03.623Z,3.67
2018-05-15T22:29:31.252Z,5.13
2018-05-15T22:31:58.863Z,3.73
2018-05-15T22:34:27.250Z,4.27
2018-05-15T22:36:54.860Z,4.00
2018-05-15T22:39:22.484Z,3.90
2018-05-15T22:41:50.092Z,3.43
2018-05-15T22:44:17.725Z,8.37
2018-05-15T22:46:45.340Z,3.17
2018-05-15T22:49:13.719Z,7.37
2018-05-15T22:51:42.129Z,3.20
2018-05-15T22:54:09.744Z,3.47
2018-05-15T22:56:37.372Z,4.23
2018-05-15T22:59:05.001Z,5.27
2018-05-15T23:01:32.619Z,5.90
2018-05-15T23:04:00.248Z,4.83
2018-05-15T23:06:27.935Z,3.87
2018-05-15T23:08:55.520Z,3.53
2018-05-15T23:11:23.904Z,5.73
2018-05-15T23:13:52.280Z,5.03
2018-05-15T23:16:20.668Z,5.37
2018-05-15T23:18:48.292Z,3.90
2018-05-15T23:21:15.924Z,5.93
2018-05-15T23:23:43.582Z,4.60
2018-05-15T23:26:11.196Z,4.77
2018-05-15T23:28:38.808Z,9.73
2018-05-15T23:31:06.428Z,8.93
2018-05-15T23:33:34.056Z,5.03
2018-05-15T23:36:02.440Z,6.87
2018-05-15T23:38:30.852Z,8.53
2018-05-15T23:40:58.460Z,4.63
2018-05-15T23:43:26.068Z,4.57
2018-05-15T23:45:53.771Z,4.67
2018-05-15T23:48:21.384Z,4.07
2018-05-15T23:50:48.999Z,4.20
2018-05-15T23:53:16.615Z,6.27
2018-05-15T23:55:44.220Z,4.73
2018-05-15T23:58:11.835Z,4.70
